Prospect, Louisiana
Current Conditions -  °F | °C
As of 7:53 PM on Friday 19 Dec 2014 (Local Time) from KAEX Reporting Station
Light Rain Light Rain  
Wind Chill: 44°   Ceiling: 700
Heat Index: 48°   Visibility: 10mi
Dew Point: 47°   Wind: 8mph
Humidity: 96%   Direction: 20°NNE
Pressure: 30.12"   Gusts: NA
Location:  31.4897°N, 92.5035°W
Report Text: KAEX 200153Z 02007KT 10SM -RA OVC007 09/08 A3012 RMK AO2 RAE02B46 SLP204 P0000 T00890083
Loading
Personal Weather Stations






























Interactive Weather Map New forecast layout! Learn more

10-Day Weather Forecast

Advertisements
Track Severe Weather on mobile